createdAt,value
2019-02-18T00:00:35.457Z,11.00
2019-02-18T00:05:39.256Z,8.60
2019-02-18T00:10:43.097Z,11.50
2019-02-18T00:15:46.920Z,11.40
2019-02-18T00:20:50.737Z,11.40
2019-02-18T00:25:54.544Z,9.50
2019-02-18T00:30:58.351Z,9.25
2019-02-18T00:36:02.164Z,10.00
2019-02-18T00:41:06.003Z,12.75
2019-02-18T00:46:09.827Z,10.25
2019-02-18T00:51:13.644Z,11.60
2019-02-18T00:56:17.481Z,10.60
2019-02-18T01:01:21.325Z,9.80
2019-02-18T01:06:25.137Z,10.00
2019-02-18T01:11:28.956Z,10.75
2019-02-18T01:16:32.800Z,9.00
2019-02-18T01:21:36.600Z,8.00
2019-02-18T01:26:40.401Z,9.00
2019-02-18T01:31:44.209Z,8.00
2019-02-18T01:36:48.018Z,9.00
2019-02-18T01:41:54.169Z,9.00
2019-02-18T01:47:00.094Z,10.00
2019-02-18T01:52:03.922Z,10.20
2019-02-18T01:57:07.763Z,9.00
2019-02-18T02:02:11.600Z,8.25
2019-02-18T02:07:15.433Z,8.00
2019-02-18T02:12:19.263Z,9.25
2019-02-18T02:17:23.091Z,7.00
2019-02-18T02:22:26.933Z,9.20
2019-02-18T02:27:30.737Z,8.50
2019-02-18T02:32:34.570Z,7.00
2019-02-18T02:37:38.405Z,9.00
2019-02-18T02:42:42.237Z,9.20
2019-02-18T02:47:46.075Z,9.50
2019-02-18T02:52:49.921Z,8.00
2019-02-18T02:57:53.730Z,8.00
2019-02-18T03:02:57.545Z,9.00
2019-02-18T03:08:01.380Z,9.00
2019-02-18T03:13:05.200Z,7.20
2019-02-18T03:18:09.031Z,9.00
2019-02-18T03:23:12.850Z,8.50
2019-02-18T03:28:42.096Z,9.50
2019-02-18T03:33:58.970Z,9.00
2019-02-18T03:39:04.662Z,8.25
2019-02-18T03:44:08.468Z,7.00
2019-02-18T03:49:12.267Z,7.60
2019-02-18T03:54:16.079Z,8.00
2019-02-18T03:59:19.903Z,7.25
2019-02-18T04:04:23.730Z,7.00
2019-02-18T04:09:27.520Z,5.50
2019-02-18T04:14:31.366Z,7.25
2019-02-18T04:19:35.183Z,6.75
2019-02-18T04:24:39.004Z,7.00
2019-02-18T04:29:42.823Z,7.00
2019-02-18T04:34:46.659Z,6.75
2019-02-18T04:39:50.452Z,7.20
2019-02-18T04:44:54.251Z,7.75
2019-02-18T04:49:58.084Z,7.00
2019-02-18T04:55:01.944Z,9.00
2019-02-18T05:00:08.433Z,8.00
2019-02-18T05:05:12.015Z,9.60
2019-02-18T05:10:15.825Z,7.40
2019-02-18T05:15:19.628Z,8.00
2019-02-18T05:20:23.455Z,6.25
2019-02-18T05:25:27.232Z,6.20
2019-02-18T05:30:31.049Z,7.00
2019-02-18T05:35:34.867Z,8.00
2019-02-18T05:40:38.683Z,7.00
2019-02-18T05:45:42.509Z,8.00
2019-02-18T05:50:46.323Z,6.75
2019-02-18T05:55:50.147Z,6.60
2019-02-18T06:00:53.947Z,8.00
2019-02-18T06:05:57.747Z,8.00
2019-02-18T06:11:01.562Z,7.50
2019-02-18T06:16:05.372Z,5.20
2019-02-18T06:21:09.177Z,6.60
2019-02-18T06:26:13.003Z,7.00
2019-02-18T06:31:16.808Z,6.20
2019-02-18T06:36:20.637Z,7.00
2019-02-18T06:41:24.448Z,6.00
2019-02-18T06:46:31.445Z,7.40
2019-02-18T06:51:35.244Z,7.00
2019-02-18T06:56:49.528Z,7.00
2019-02-18T07:02:10.388Z,7.00
2019-02-18T07:07:20.449Z,6.20
2019-02-18T07:12:27.852Z,5.40
2019-02-18T07:17:31.618Z,6.00
2019-02-18T07:22:35.416Z,6.00
2019-02-18T07:27:39.203Z,6.00
2019-02-18T07:32:43.227Z,6.00
2019-02-18T07:37:47.067Z,6.25
2019-02-18T07:42:50.872Z,6.00
2019-02-18T07:47:54.657Z,6.00
2019-02-18T07:52:58.441Z,6.75
2019-02-18T07:58:02.221Z,4.60
2019-02-18T08:03:06.003Z,5.75
2019-02-18T08:08:09.782Z,7.25
2019-02-18T08:13:13.588Z,6.00
2019-02-18T08:18:17.367Z,5.50
2019-02-18T08:23:21.162Z,5.00
2019-02-18T08:28:24.952Z,5.25
2019-02-18T08:33:28.741Z,4.00
2019-02-18T08:38:32.551Z,4.00
2019-02-18T08:43:36.336Z,5.00
2019-02-18T08:48:40.129Z,4.00
2019-02-18T08:53:43.926Z,3.00
2019-02-18T08:58:47.736Z,5.75
2019-02-18T09:03:51.532Z,4.75
2019-02-18T09:08:55.306Z,5.20
2019-02-18T09:13:59.103Z,5.00
2019-02-18T09:19:02.891Z,6.00
2019-02-18T09:24:20.151Z,5.75
2019-02-18T09:29:23.927Z,3.00
2019-02-18T09:34:27.715Z,4.00
2019-02-18T09:39:31.846Z,17.50
2019-02-18T09:44:35.716Z,26.00
2019-02-18T09:49:39.587Z,26.60
2019-02-18T09:54:43.404Z,29.75
2019-02-18T09:59:47.225Z,29.25
2019-02-18T10:04:51.062Z,24.00
2019-02-18T10:09:54.875Z,26.50
2019-02-18T10:14:58.693Z,27.75
2019-02-18T10:20:02.491Z,28.00
2019-02-18T10:25:07.526Z,25.00
2019-02-18T10:30:11.760Z,23.50
2019-02-18T10:35:15.603Z,29.25
2019-02-18T10:40:19.391Z,26.25
2019-02-18T10:45:23.216Z,30.50
2019-02-18T10:50:27.022Z,30.20
2019-02-18T10:55:30.982Z,29.00
2019-02-18T11:00:34.960Z,31.25
2019-02-18T11:05:38.767Z,31.25
2019-02-18T11:10:42.586Z,28.25
2019-02-18T11:15:46.395Z,27.00
2019-02-18T11:20:50.211Z,31.80
2019-02-18T11:25:54.015Z,27.75
2019-02-18T11:30:57.827Z,24.60
2019-02-18T11:36:01.653Z,25.50
2019-02-18T11:41:05.452Z,30.75
2019-02-18T11:46:09.259Z,27.40
2019-02-18T11:51:13.334Z,26.75
2019-02-18T11:56:17.158Z,26.25
2019-02-18T12:01:21.093Z,26.75
2019-02-18T12:06:24.906Z,28.00
2019-02-18T12:11:37.923Z,26.00
2019-02-18T12:16:34.330Z,21.60
2019-02-18T12:21:38.282Z,20.00
2019-02-18T12:26:42.098Z,20.60
2019-02-18T12:31:45.916Z,19.40
2019-02-18T12:36:49.759Z,15.50
2019-02-18T12:41:53.564Z,14.00
2019-02-18T12:46:57.392Z,15.60
2019-02-18T12:52:01.581Z,11.75
2019-02-18T12:57:05.408Z,11.25
2019-02-18T13:02:09.220Z,12.25
2019-02-18T13:07:13.315Z,10.60
2019-02-18T13:12:17.204Z,11.80
2019-02-18T13:17:20.992Z,8.75
2019-02-18T13:22:24.798Z,8.00
2019-02-18T13:27:28.800Z,8.00
2019-02-18T13:32:32.611Z,7.00
2019-02-18T13:37:36.414Z,7.00
2019-02-18T13:42:40.216Z,7.00
2019-02-18T13:47:44.021Z,8.00
2019-02-18T13:52:47.829Z,8.00
2019-02-18T13:57:51.639Z,7.00
2019-02-18T14:02:55.465Z,8.00
2019-02-18T14:07:59.271Z,7.50
2019-02-18T14:13:03.094Z,6.00
2019-02-18T14:18:06.931Z,7.50
2019-02-18T14:23:11.227Z,6.80
2019-02-18T14:28:15.055Z,7.25
2019-02-18T14:33:18.873Z,6.80
2019-02-18T14:38:22.697Z,7.75
2019-02-18T14:43:26.491Z,7.60
2019-02-18T14:48:30.690Z,9.75
2019-02-18T14:53:34.489Z,6.00
2019-02-18T14:58:38.330Z,6.80
2019-02-18T15:03:42.157Z,7.00
2019-02-18T15:08:45.978Z,7.25
2019-02-18T15:13:49.790Z,6.40
2019-02-18T15:18:53.602Z,6.75
2019-02-18T15:23:57.413Z,7.40
2019-02-18T15:29:01.214Z,9.00
2019-02-18T15:34:05.038Z,6.60
2019-02-18T15:39:08.856Z,8.00
2019-02-18T15:44:12.693Z,6.25
2019-02-18T15:49:16.887Z,6.50
2019-02-18T15:54:20.716Z,6.75
2019-02-18T15:59:24.527Z,6.00
2019-02-18T16:04:28.332Z,7.75
2019-02-18T16:09:32.127Z,8.75
2019-02-18T16:14:36.330Z,11.60
2019-02-18T16:19:40.159Z,14.00
2019-02-18T16:24:43.974Z,9.75
2019-02-18T16:29:48.614Z,10.50
2019-02-18T16:34:52.505Z,9.40
2019-02-18T16:39:57.085Z,12.25
2019-02-18T16:45:00.939Z,14.20
2019-02-18T16:50:05.173Z,14.00
2019-02-18T16:55:10.109Z,10.80
2019-02-18T17:00:29.029Z,13.20
2019-02-18T17:05:32.896Z,11.50
2019-02-18T17:10:36.692Z,9.00
2019-02-18T17:15:40.591Z,9.25
2019-02-18T17:20:44.431Z,10.50
2019-02-18T17:25:48.514Z,9.00
2019-02-18T17:30:52.339Z,6.00
2019-02-18T17:35:56.184Z,9.80
2019-02-18T17:41:01.482Z,9.20
2019-02-18T17:46:05.429Z,8.75
2019-02-18T17:51:09.247Z,8.00
2019-02-18T17:56:13.055Z,8.50
2019-02-18T18:01:16.880Z,8.75
2019-02-18T18:06:20.867Z,8.25
2019-02-18T18:11:24.703Z,10.00
2019-02-18T18:16:28.523Z,7.25
2019-02-18T18:21:32.335Z,7.00
2019-02-18T18:26:36.142Z,8.00
2019-02-18T18:31:39.945Z,8.25
2019-02-18T18:36:43.770Z,7.75
2019-02-18T18:41:47.570Z,8.00
2019-02-18T18:46:51.416Z,8.25
2019-02-18T18:51:55.618Z,6.75
2019-02-18T18:56:59.435Z,7.00
2019-02-18T19:02:03.321Z,7.50
2019-02-18T19:07:07.149Z,6.80
2019-02-18T19:12:10.965Z,8.40
2019-02-18T19:17:14.777Z,8.00
2019-02-18T19:22:18.604Z,5.00
2019-02-18T19:27:22.796Z,8.75
2019-02-18T19:32:26.627Z,8.00
2019-02-18T19:37:30.479Z,7.40
2019-02-18T19:42:34.273Z,7.20
2019-02-18T19:47:38.060Z,6.20
2019-02-18T19:52:41.843Z,7.20
2019-02-18T19:57:45.647Z,8.00
2019-02-18T20:02:49.825Z,5.00
2019-02-18T20:07:53.655Z,7.50
2019-02-18T20:12:57.457Z,8.00
2019-02-18T20:18:01.239Z,6.20
2019-02-18T20:23:05.048Z,8.60
2019-02-18T20:28:08.832Z,8.75
2019-02-18T20:33:12.607Z,7.00
2019-02-18T20:38:16.430Z,8.60
2019-02-18T20:43:20.210Z,7.25
2019-02-18T20:48:23.991Z,7.25
2019-02-18T20:53:27.809Z,7.00
2019-02-18T20:58:31.610Z,9.60
2019-02-18T21:03:35.707Z,8.00
2019-02-18T21:08:39.570Z,7.75
2019-02-18T21:13:43.362Z,7.00
2019-02-18T21:18:47.156Z,7.50
2019-02-18T21:23:51.032Z,6.20
2019-02-18T21:28:54.867Z,7.00
2019-02-18T21:33:58.669Z,6.75
2019-02-18T21:39:04.108Z,5.00
2019-02-18T21:44:07.981Z,8.50
2019-02-18T21:49:14.074Z,4.75
2019-02-18T21:54:17.922Z,7.25
2019-02-18T21:59:21.716Z,4.00
2019-02-18T22:04:25.989Z,7.75
2019-02-18T22:09:29.783Z,5.00
2019-02-18T22:14:35.707Z,4.00
2019-02-18T22:19:39.117Z,5.00
2019-02-18T22:24:42.973Z,4.60
2019-02-18T22:29:47.054Z,5.00
2019-02-18T22:34:50.856Z,6.50
2019-02-18T22:39:54.640Z,3.75
2019-02-18T22:44:58.471Z,6.00
2019-02-18T22:50:02.507Z,6.75
2019-02-18T22:55:07.067Z,7.20
2019-02-18T23:00:18.427Z,5.80
2019-02-18T23:05:22.292Z,7.00
2019-02-18T23:10:26.092Z,4.75
2019-02-18T23:15:29.866Z,6.20
2019-02-18T23:20:33.826Z,4.20
2019-02-18T23:25:37.628Z,4.00
2019-02-18T23:30:41.417Z,4.00
2019-02-18T23:35:45.310Z,7.00
2019-02-18T23:40:49.126Z,4.75
2019-02-18T23:45:52.958Z,6.75
2019-02-18T23:50:56.762Z,4.50
2019-02-18T23:56:00.563Z,4.75
